createdAt,value
2018-08-11T00:01:13.935Z,15.80
2018-08-11T00:03:42.355Z,15.50
2018-08-11T00:06:11.113Z,15.30
2018-08-11T00:08:39.608Z,15.20
2018-08-11T00:11:08.074Z,14.70
2018-08-11T00:13:36.478Z,15.40
2018-08-11T00:16:05.157Z,14.80
2018-08-11T00:18:33.564Z,15.30
2018-08-11T00:21:01.974Z,15.50
2018-08-11T00:23:30.450Z,15.30
2018-08-11T00:25:59.064Z,15.10
2018-08-11T00:28:27.768Z,14.80
2018-08-11T00:30:56.299Z,15.20
2018-08-11T00:33:24.743Z,15.20
2018-08-11T00:35:53.540Z,15.20
2018-08-11T00:38:22.252Z,15.00
2018-08-11T00:40:50.815Z,15.30
2018-08-11T00:43:19.308Z,15.20
2018-08-11T00:45:47.748Z,14.60
2018-08-11T00:48:16.373Z,15.20
2018-08-11T00:50:45.072Z,15.10
2018-08-11T00:53:13.531Z,15.00
2018-08-11T00:55:41.994Z,15.10
2018-08-11T00:58:10.483Z,15.10
2018-08-11T01:00:39.138Z,15.00
2018-08-11T01:03:07.698Z,14.80
2018-08-11T01:05:36.113Z,14.50
2018-08-11T01:08:04.882Z,15.10
2018-08-11T01:10:33.311Z,15.20
2018-08-11T01:13:01.505Z,14.70
2018-08-11T01:15:30.058Z,14.50
2018-08-11T01:17:58.436Z,14.80
2018-08-11T01:20:26.909Z,15.00
2018-08-11T01:22:55.391Z,14.80
2018-08-11T01:25:23.836Z,14.80
2018-08-11T01:27:52.579Z,14.70
2018-08-11T01:30:21.815Z,14.90
2018-08-11T01:32:50.318Z,14.70
2018-08-11T01:35:18.936Z,15.00
2018-08-11T01:37:47.630Z,14.80
2018-08-11T01:40:16.771Z,15.20
2018-08-11T01:42:46.372Z,14.80
2018-08-11T01:45:15.500Z,14.30
2018-08-11T01:47:44.231Z,14.90
2018-08-11T01:50:14.260Z,14.80
2018-08-11T01:52:43.913Z,14.80
2018-08-11T01:55:14.280Z,14.80
2018-08-11T01:57:42.831Z,14.80
2018-08-11T02:00:13.228Z,14.80
2018-08-11T02:02:41.807Z,14.90
2018-08-11T02:05:10.959Z,14.20
2018-08-11T02:07:40.669Z,14.30
2018-08-11T02:10:15.166Z,14.70
2018-08-11T02:12:43.951Z,14.10
2018-08-11T02:15:13.283Z,14.30
2018-08-11T02:17:42.016Z,13.70
2018-08-11T02:20:13.831Z,14.40
2018-08-11T02:22:43.891Z,14.80
2018-08-11T02:25:12.545Z,14.70
2018-08-11T02:27:40.894Z,14.40
2018-08-11T02:30:12.503Z,14.70
2018-08-11T02:32:41.113Z,14.70
2018-08-11T02:35:10.891Z,14.60
2018-08-11T02:37:39.712Z,14.30
2018-08-11T02:40:10.954Z,14.70
2018-08-11T02:42:39.382Z,14.50
2018-08-11T02:45:10.403Z,14.70
2018-08-11T02:47:38.783Z,14.70
2018-08-11T02:50:09.335Z,14.80
2018-08-11T02:52:38.231Z,14.90
2018-08-11T02:55:06.891Z,14.50
2018-08-11T02:57:35.513Z,14.60
2018-08-11T03:00:05.158Z,14.60
2018-08-11T03:02:33.782Z,14.90
2018-08-11T03:05:02.352Z,14.80
2018-08-11T03:07:30.703Z,14.80
2018-08-11T03:09:59.033Z,14.70
2018-08-11T03:12:27.727Z,14.80
2018-08-11T03:14:56.122Z,14.40
2018-08-11T03:17:24.787Z,14.70
2018-08-11T03:19:53.255Z,14.60
2018-08-11T03:22:21.663Z,14.20
2018-08-11T03:24:50.063Z,14.50
2018-08-11T03:27:18.571Z,14.80
2018-08-11T03:29:46.996Z,14.60
2018-08-11T03:32:15.400Z,14.60
2018-08-11T03:34:43.720Z,14.80
2018-08-11T03:37:12.067Z,14.70
2018-08-11T03:39:40.499Z,14.40
2018-08-11T03:42:08.569Z,14.50
2018-08-11T03:44:36.658Z,14.20
2018-08-11T03:47:05.133Z,14.50
2018-08-11T03:49:33.748Z,14.40
2018-08-11T03:52:02.141Z,14.80
2018-08-11T03:54:30.661Z,13.90
2018-08-11T03:56:58.718Z,14.90
2018-08-11T03:59:27.365Z,14.70
2018-08-11T04:01:55.744Z,14.80
2018-08-11T04:04:24.110Z,14.50
2018-08-11T04:06:52.882Z,14.60
2018-08-11T04:09:21.463Z,14.30
2018-08-11T04:11:49.880Z,14.80
2018-08-11T04:14:18.527Z,14.70
2018-08-11T04:16:47.107Z,14.50
2018-08-11T04:19:15.583Z,14.70
2018-08-11T04:21:44.175Z,14.50
2018-08-11T04:24:12.562Z,14.70
2018-08-11T04:26:40.651Z,13.90
2018-08-11T04:29:09.590Z,14.60
2018-08-11T04:31:38.179Z,13.70
2018-08-11T04:34:07.035Z,13.80
2018-08-11T04:36:35.493Z,14.40
2018-08-11T04:39:06.643Z,14.40
2018-08-11T04:41:35.107Z,14.40
2018-08-11T04:44:03.624Z,14.30
2018-08-11T04:46:32.004Z,14.30
2018-08-11T04:49:00.523Z,14.60
2018-08-11T04:51:28.896Z,14.30
2018-08-11T04:53:57.421Z,14.30
2018-08-11T04:56:25.796Z,14.30
2018-08-11T04:58:54.199Z,14.40
2018-08-11T05:01:22.807Z,13.90
2018-08-11T05:03:51.494Z,14.50
2018-08-11T05:06:19.826Z,14.70
2018-08-11T05:08:48.222Z,14.70
2018-08-11T05:11:16.668Z,14.70
2018-08-11T05:13:45.034Z,14.50
2018-08-11T05:16:13.399Z,14.80
2018-08-11T05:18:41.827Z,14.30
2018-08-11T05:21:10.519Z,14.70
2018-08-11T05:23:39.013Z,14.40
2018-08-11T05:26:07.432Z,14.60
2018-08-11T05:28:35.920Z,14.70
2018-08-11T05:31:04.449Z,14.80
2018-08-11T05:33:33.060Z,14.80
2018-08-11T05:36:01.428Z,14.30
2018-08-11T05:38:29.992Z,14.30
2018-08-11T05:40:58.587Z,15.20
2018-08-11T05:43:30.913Z,14.90
2018-08-11T05:45:59.423Z,14.60
2018-08-11T05:48:28.037Z,14.10
2018-08-11T05:50:56.494Z,14.60
2018-08-11T05:53:24.854Z,14.50
2018-08-11T05:55:53.560Z,14.60
2018-08-11T05:58:22.114Z,14.30
2018-08-11T06:00:50.493Z,14.80
2018-08-11T06:03:19.183Z,14.70
2018-08-11T06:05:47.935Z,14.70
2018-08-11T06:08:16.343Z,14.20
2018-08-11T06:10:44.915Z,15.10
2018-08-11T06:13:13.263Z,15.10
2018-08-11T06:15:41.734Z,15.00
2018-08-11T06:18:10.140Z,15.10
2018-08-11T06:20:38.545Z,15.40
2018-08-11T06:23:07.143Z,14.60
2018-08-11T06:25:35.615Z,15.20
2018-08-11T06:28:04.299Z,15.30
2018-08-11T06:30:32.682Z,15.40
2018-08-11T06:33:01.115Z,14.70
2018-08-11T06:35:29.560Z,15.10
2018-08-11T06:37:57.905Z,15.50
2018-08-11T06:40:26.268Z,14.90
2018-08-11T06:42:54.817Z,15.40
2018-08-11T06:45:23.207Z,15.40
2018-08-11T06:47:51.534Z,15.50
2018-08-11T06:50:20.271Z,15.60
2018-08-11T06:52:48.878Z,16.00
2018-08-11T06:55:17.242Z,15.80
2018-08-11T06:57:45.941Z,15.70
2018-08-11T07:00:14.251Z,15.60
2018-08-11T07:02:42.603Z,15.70
2018-08-11T07:05:11.173Z,16.20
2018-08-11T07:07:39.560Z,15.70
2018-08-11T07:10:08.051Z,15.50
2018-08-11T07:12:36.804Z,16.50
2018-08-11T07:15:05.648Z,15.80
2018-08-11T07:17:34.182Z,16.50
2018-08-11T07:20:02.715Z,16.00
2018-08-11T07:22:31.260Z,16.60
2018-08-11T07:24:59.867Z,16.80
2018-08-11T07:27:28.287Z,16.80
2018-08-11T07:29:56.911Z,16.90
2018-08-11T07:32:25.289Z,16.70
2018-08-11T07:34:53.750Z,17.00
2018-08-11T07:37:22.228Z,17.00
2018-08-11T07:39:50.865Z,16.60
2018-08-11T07:42:19.219Z,17.00
2018-08-11T07:44:47.668Z,17.40
2018-08-11T07:47:16.157Z,17.40
2018-08-11T07:49:44.837Z,17.20
2018-08-11T07:52:13.265Z,17.60
2018-08-11T07:54:41.666Z,17.70
2018-08-11T07:57:10.067Z,17.60
2018-08-11T07:59:38.422Z,17.90
2018-08-11T08:02:06.981Z,18.00
2018-08-11T08:04:35.626Z,18.10
2018-08-11T08:07:04.449Z,18.70
2018-08-11T08:09:33.116Z,19.40
2018-08-11T08:12:01.770Z,18.70
2018-08-11T08:14:30.441Z,19.30
2018-08-11T08:16:59.067Z,19.10
2018-08-11T08:19:27.882Z,19.60
2018-08-11T08:21:56.282Z,20.00
2018-08-11T08:24:24.752Z,20.70
2018-08-11T08:26:53.198Z,20.70
2018-08-11T08:29:21.548Z,21.50
2018-08-11T08:31:49.986Z,21.00
2018-08-11T08:34:18.489Z,21.70
2018-08-11T08:36:46.929Z,21.70
2018-08-11T08:39:15.389Z,22.30
2018-08-11T08:41:43.771Z,22.30
2018-08-11T08:44:12.256Z,22.20
2018-08-11T08:46:40.754Z,21.50
2018-08-11T08:49:09.208Z,22.30
2018-08-11T08:51:37.849Z,22.60
2018-08-11T08:54:06.272Z,22.00
2018-08-11T08:56:34.704Z,23.20
2018-08-11T08:59:03.562Z,22.20
2018-08-11T09:01:31.982Z,22.50
2018-08-11T09:04:00.622Z,22.80
2018-08-11T09:06:29.273Z,23.20
2018-08-11T09:08:57.664Z,22.90
2018-08-11T09:11:26.381Z,22.90
2018-08-11T09:13:55.059Z,23.40
2018-08-11T09:16:23.685Z,23.50
2018-08-11T09:18:52.427Z,23.80
2018-08-11T09:21:20.774Z,23.80
2018-08-11T09:23:49.109Z,23.80
2018-08-11T09:26:17.578Z,24.30
2018-08-11T09:28:45.947Z,23.70
2018-08-11T09:31:14.435Z,23.30
2018-08-11T09:33:42.995Z,22.90
2018-08-11T09:36:11.570Z,22.20
2018-08-11T09:38:40.260Z,22.50
2018-08-11T09:41:08.890Z,22.60
2018-08-11T09:43:37.282Z,22.60
2018-08-11T09:46:06.019Z,23.90
2018-08-11T09:48:34.635Z,22.70
2018-08-11T09:51:03.049Z,22.90
2018-08-11T09:53:31.362Z,22.90
2018-08-11T09:55:59.688Z,23.00
2018-08-11T09:58:28.325Z,23.00
2018-08-11T10:01:01.405Z,22.20
2018-08-11T10:03:29.882Z,21.90
2018-08-11T10:05:58.268Z,21.50
2018-08-11T10:08:26.714Z,22.20
2018-08-11T10:10:55.086Z,22.00
2018-08-11T10:13:23.429Z,22.30
2018-08-11T10:15:51.822Z,22.20
2018-08-11T10:18:20.205Z,23.20
2018-08-11T10:20:48.931Z,23.20
2018-08-11T10:23:17.477Z,23.50
2018-08-11T10:25:46.291Z,23.50
2018-08-11T10:28:14.685Z,23.90
2018-08-11T10:30:43.368Z,23.60
2018-08-11T10:33:11.725Z,23.20
2018-08-11T10:35:39.861Z,23.60
2018-08-11T10:38:08.333Z,23.30
2018-08-11T10:40:36.877Z,23.60
2018-08-11T10:43:05.407Z,23.70
2018-08-11T10:45:33.892Z,22.70
2018-08-11T10:48:02.552Z,23.20
2018-08-11T10:50:30.986Z,22.70
2018-08-11T10:52:59.373Z,23.50
2018-08-11T10:55:27.767Z,23.20
2018-08-11T10:57:56.423Z,23.10
2018-08-11T11:00:24.981Z,23.00
2018-08-11T11:02:53.352Z,22.30
2018-08-11T11:05:21.770Z,22.60
2018-08-11T11:07:50.210Z,23.00
2018-08-11T11:10:18.868Z,23.00
2018-08-11T11:12:48.724Z,23.80
2018-08-11T11:15:17.591Z,23.70
2018-08-11T11:17:46.212Z,24.10
2018-08-11T11:20:14.780Z,24.00
2018-08-11T11:22:45.929Z,24.30
2018-08-11T11:25:16.115Z,23.90
2018-08-11T11:27:44.608Z,24.30
2018-08-11T11:30:14.959Z,24.50
2018-08-11T11:32:43.779Z,24.50
2018-08-11T11:35:12.357Z,24.50
2018-08-11T11:37:41.116Z,24.60
2018-08-11T11:40:11.104Z,23.80
2018-08-11T11:42:39.793Z,24.30
2018-08-11T11:45:08.486Z,24.00
2018-08-11T11:47:37.327Z,23.80
2018-08-11T11:50:07.547Z,23.50
2018-08-11T11:52:37.231Z,23.80
2018-08-11T11:55:05.904Z,23.80
2018-08-11T11:57:34.468Z,24.10
2018-08-11T12:00:04.189Z,24.10
2018-08-11T12:02:33.099Z,23.60
2018-08-11T12:05:05.084Z,23.20
2018-08-11T12:07:33.761Z,23.20
2018-08-11T12:10:03.459Z,22.70
2018-08-11T12:12:32.212Z,23.60
2018-08-11T12:15:01.657Z,23.80
2018-08-11T12:17:32.738Z,24.10
2018-08-11T12:20:02.248Z,24.00
2018-08-11T12:22:34.246Z,23.40
2018-08-11T12:25:05.338Z,24.10
2018-08-11T12:27:34.205Z,23.80
2018-08-11T12:30:02.919Z,23.30
2018-08-11T12:32:31.811Z,23.40
2018-08-11T12:35:00.581Z,23.50
2018-08-11T12:37:29.776Z,24.40
2018-08-11T12:42:33.714Z,23.80
2018-08-11T12:45:02.306Z,23.60
2018-08-11T12:47:31.120Z,22.90
2018-08-11T12:50:01.034Z,23.30
2018-08-11T12:52:29.942Z,23.40
2018-08-11T12:54:59.991Z,24.00
2018-08-11T12:57:28.679Z,23.20
2018-08-11T12:59:57.956Z,23.20
2018-08-11T13:02:27.203Z,23.30
2018-08-11T13:04:58.267Z,23.20
2018-08-11T13:07:28.399Z,22.70
2018-08-11T13:09:57.705Z,22.30
2018-08-11T13:12:28.316Z,23.00
2018-08-11T13:14:58.517Z,22.40
2018-08-11T13:17:27.924Z,22.40
2018-08-11T13:19:58.882Z,23.00
2018-08-11T13:22:27.639Z,22.80
2018-08-11T13:24:57.357Z,23.20
2018-08-11T13:27:26.447Z,23.40
2018-08-11T13:29:55.690Z,22.70
2018-08-11T13:32:24.998Z,22.80
2018-08-11T13:34:54.503Z,22.70
2018-08-11T13:37:26.016Z,22.90
2018-08-11T13:39:57.735Z,23.20
2018-08-11T13:42:26.993Z,23.70
2018-08-11T13:44:56.839Z,22.40
2018-08-11T13:47:25.378Z,22.90
2018-08-11T13:49:54.792Z,23.20
2018-08-11T13:52:24.016Z,22.90
2018-08-11T13:54:52.744Z,22.90
2018-08-11T13:57:21.643Z,22.70
2018-08-11T13:59:50.807Z,22.90
2018-08-11T14:02:20.098Z,22.70
2018-08-11T14:04:50.217Z,22.30
2018-08-11T14:07:20.016Z,22.40
2018-08-11T14:09:49.120Z,23.20
2018-08-11T14:12:17.934Z,23.00
2018-08-11T14:14:46.788Z,23.20
2018-08-11T14:17:16.516Z,23.90
2018-08-11T14:19:45.001Z,23.60
2018-08-11T14:22:13.904Z,23.50
2018-08-11T14:24:43.716Z,23.30
2018-08-11T14:29:50.236Z,23.50
2018-08-11T14:32:20.647Z,23.70
2018-08-11T14:34:52.004Z,22.50
2018-08-11T14:37:24.585Z,22.60
2018-08-11T14:39:53.602Z,23.70
2018-08-11T14:42:22.400Z,23.50
2018-08-11T14:44:51.333Z,23.90
2018-08-11T14:47:21.031Z,23.90
2018-08-11T14:49:49.803Z,23.60
2018-08-11T14:52:18.348Z,23.80
2018-08-11T14:54:47.033Z,23.70
2018-08-11T14:57:15.746Z,24.20
2018-08-11T14:59:44.824Z,23.10
2018-08-11T15:02:13.806Z,24.00
2018-08-11T15:04:46.780Z,23.90
2018-08-11T15:07:16.132Z,23.50
2018-08-11T15:09:45.337Z,23.70
2018-08-11T15:12:14.620Z,23.90
2018-08-11T15:14:43.465Z,23.20
2018-08-11T15:17:12.202Z,23.80
2018-08-11T15:19:42.583Z,23.30
2018-08-11T15:22:12.212Z,23.20
2018-08-11T15:24:41.756Z,23.90
2018-08-11T15:27:10.743Z,23.20
2018-08-11T15:29:39.555Z,23.50
2018-08-11T15:32:08.289Z,23.20
2018-08-11T15:34:36.872Z,23.10
2018-08-11T15:37:05.464Z,23.30
2018-08-11T15:39:35.123Z,23.90
2018-08-11T15:42:03.906Z,24.10
2018-08-11T15:44:32.712Z,23.60
2018-08-11T15:47:01.812Z,24.00
2018-08-11T15:49:30.713Z,23.50
2018-08-11T15:52:00.364Z,22.80
2018-08-11T15:54:30.361Z,23.30
2018-08-11T15:57:00.099Z,23.10
2018-08-11T15:59:28.679Z,23.00
2018-08-11T16:01:58.400Z,23.00
2018-08-11T16:04:27.167Z,23.20
2018-08-11T16:06:56.051Z,23.00
2018-08-11T16:09:24.917Z,22.80
2018-08-11T16:11:53.542Z,22.40
2018-08-11T16:14:23.258Z,22.30
2018-08-11T16:16:52.462Z,22.80
2018-08-11T16:19:23.897Z,22.40
2018-08-11T16:21:53.891Z,22.60
2018-08-11T16:24:22.576Z,22.90
2018-08-11T16:26:51.320Z,22.40
2018-08-11T16:29:21.105Z,23.00
2018-08-11T16:31:49.701Z,22.70
2018-08-11T16:34:18.906Z,23.10
2018-08-11T16:36:48.969Z,23.20
2018-08-11T16:39:18.138Z,22.40
2018-08-11T16:41:47.494Z,22.90
2018-08-11T16:44:16.935Z,22.70
2018-08-11T16:46:45.538Z,22.30
2018-08-11T16:49:14.480Z,22.60
2018-08-11T16:51:46.389Z,23.00
2018-08-11T16:54:15.187Z,23.00
2018-08-11T16:56:44.078Z,22.90
2018-08-11T16:59:13.632Z,23.00
2018-08-11T17:01:42.493Z,22.60
2018-08-11T17:04:12.070Z,22.50
2018-08-11T17:06:41.345Z,23.00
2018-08-11T17:09:10.960Z,22.20
2018-08-11T17:11:40.789Z,22.30
2018-08-11T17:14:09.623Z,22.20
2018-08-11T17:16:38.239Z,22.80
2018-08-11T17:19:08.031Z,22.60
2018-08-11T17:21:38.940Z,22.80
2018-08-11T17:24:09.303Z,22.70
2018-08-11T17:26:39.984Z,22.70
2018-08-11T17:29:10.299Z,22.00
2018-08-11T17:31:43.046Z,22.20
2018-08-11T17:34:12.779Z,22.20
2018-08-11T17:36:41.765Z,21.40
2018-08-11T17:39:11.673Z,22.00
2018-08-11T17:41:44.183Z,21.70
2018-08-11T17:44:14.343Z,21.60
2018-08-11T17:46:43.094Z,22.20
2018-08-11T17:49:14.127Z,22.20
2018-08-11T17:51:44.035Z,22.10
2018-08-11T17:54:14.188Z,22.20
2018-08-11T17:56:43.227Z,21.90
2018-08-11T17:59:12.023Z,22.00
2018-08-11T18:01:42.072Z,21.10
2018-08-11T18:04:11.515Z,21.40
2018-08-11T18:06:40.949Z,21.40
2018-08-11T18:09:11.682Z,21.50
2018-08-11T18:11:41.399Z,21.60
2018-08-11T18:14:11.249Z,21.60
2018-08-11T18:16:41.557Z,21.10
2018-08-11T18:19:10.340Z,21.40
2018-08-11T18:21:39.784Z,21.20
2018-08-11T18:24:10.660Z,21.40
2018-08-11T18:26:41.011Z,21.40
2018-08-11T18:29:11.847Z,21.60
2018-08-11T18:34:16.283Z,21.50
2018-08-11T18:36:45.783Z,21.20
2018-08-11T18:39:14.842Z,21.10
2018-08-11T18:41:45.007Z,21.30
2018-08-11T18:44:15.178Z,21.10
2018-08-11T18:46:46.565Z,21.00
2018-08-11T18:49:15.322Z,20.40
2018-08-11T18:51:45.264Z,20.90
2018-08-11T18:54:14.502Z,20.90
2018-08-11T18:56:43.902Z,20.80
2018-08-11T18:59:12.676Z,20.40
2018-08-11T19:01:41.471Z,20.00
2018-08-11T19:04:10.932Z,20.10
2018-08-11T19:06:43.753Z,19.80
2018-08-11T19:09:14.191Z,19.90
2018-08-11T19:11:45.230Z,19.90
2018-08-11T19:14:16.035Z,19.90
2018-08-11T19:16:46.716Z,19.60
2018-08-11T19:19:17.204Z,19.30
2018-08-11T19:21:47.324Z,19.20
2018-08-11T19:24:16.414Z,19.60
2018-08-11T19:26:46.954Z,19.50
2018-08-11T19:29:18.008Z,19.20
2018-08-11T19:31:47.274Z,19.50
2018-08-11T19:34:16.332Z,19.30
2018-08-11T19:36:44.998Z,19.20
2018-08-11T19:39:13.805Z,18.80
2018-08-11T19:41:42.672Z,18.90
2018-08-11T19:44:11.668Z,18.30
2018-08-11T19:46:41.416Z,18.60
2018-08-11T19:49:12.315Z,18.60
2018-08-11T19:51:43.009Z,18.30
2018-08-11T19:54:12.810Z,18.60
2018-08-11T19:56:43.611Z,17.80
2018-08-11T19:59:13.943Z,18.20
2018-08-11T20:01:43.387Z,18.10
2018-08-11T20:04:14.790Z,18.50
2018-08-11T20:06:45.407Z,17.80
2018-08-11T20:09:16.009Z,18.10
2018-08-11T20:11:52.732Z,17.50
2018-08-11T20:14:22.114Z,18.10
2018-08-11T20:16:51.867Z,18.00
2018-08-11T20:19:22.089Z,17.30
2018-08-11T20:24:25.472Z,18.00
2018-08-11T20:26:55.110Z,17.80
2018-08-11T20:29:24.078Z,18.10
2018-08-11T20:31:54.499Z,17.50
2018-08-11T20:34:23.552Z,17.40
2018-08-11T20:36:53.304Z,17.20
2018-08-11T20:39:22.920Z,17.90
2018-08-11T20:41:52.171Z,17.70
2018-08-11T20:44:21.820Z,17.80
2018-08-11T20:46:52.243Z,17.50
2018-08-11T20:49:21.195Z,17.60
2018-08-11T20:51:50.497Z,17.00
2018-08-11T20:54:21.066Z,17.40
2018-08-11T20:56:51.090Z,17.50
2018-08-11T20:59:20.903Z,17.90
2018-08-11T21:01:50.606Z,17.50
2018-08-11T21:04:19.664Z,16.90
2018-08-11T21:06:48.860Z,16.80
2018-08-11T21:09:17.871Z,17.50
2018-08-11T21:11:46.845Z,17.50
2018-08-11T21:14:16.987Z,17.30
2018-08-11T21:16:45.909Z,17.40
2018-08-11T21:19:14.913Z,17.80
2018-08-11T21:21:46.051Z,17.40
2018-08-11T21:24:15.205Z,16.80
2018-08-11T21:26:44.775Z,16.80
2018-08-11T21:29:13.750Z,16.70
2018-08-11T21:31:42.708Z,17.30
2018-08-11T21:34:12.167Z,17.30
2018-08-11T21:36:42.262Z,17.50
2018-08-11T21:39:15.594Z,16.80
2018-08-11T21:41:45.852Z,17.00
2018-08-11T21:44:14.910Z,16.50
2018-08-11T21:46:43.990Z,16.70
2018-08-11T21:49:13.463Z,16.00
2018-08-11T21:51:49.427Z,16.70
2018-08-11T21:54:18.569Z,17.30
2018-08-11T21:56:47.660Z,16.40
2018-08-11T21:59:17.736Z,16.60
2018-08-11T22:01:48.193Z,16.30
2018-08-11T22:04:18.346Z,16.80
2018-08-11T22:06:47.796Z,17.00
2018-08-11T22:09:16.800Z,16.80
2018-08-11T22:11:45.525Z,16.60
2018-08-11T22:14:14.557Z,16.20
2018-08-11T22:16:43.596Z,16.40
2018-08-11T22:19:12.780Z,16.20
2018-08-11T22:21:41.723Z,16.10
2018-08-11T22:24:10.687Z,15.80
2018-08-11T22:26:39.635Z,16.30
2018-08-11T22:29:09.212Z,16.30
2018-08-11T22:31:39.851Z,16.90
2018-08-11T22:34:09.171Z,16.20
2018-08-11T22:36:39.861Z,16.20
2018-08-11T22:39:10.674Z,16.00
2018-08-11T22:41:39.955Z,16.10
2018-08-11T22:44:09.557Z,15.50
2018-08-11T22:46:39.031Z,15.40
2018-08-11T22:49:09.099Z,15.60
2018-08-11T22:51:38.803Z,16.50
2018-08-11T22:54:13.387Z,16.40
2018-08-11T22:56:42.425Z,16.20
2018-08-11T22:59:13.463Z,16.20
2018-08-11T23:01:42.420Z,16.40
2018-08-11T23:04:11.225Z,16.40
2018-08-11T23:06:40.939Z,16.60
2018-08-11T23:09:10.095Z,16.50
2018-08-11T23:11:40.801Z,16.40
2018-08-11T23:14:09.699Z,16.50
2018-08-11T23:16:40.393Z,16.40
2018-08-11T23:19:12.058Z,16.50
2018-08-11T23:21:41.754Z,16.40
2018-08-11T23:24:14.779Z,16.40
2018-08-11T23:26:44.585Z,15.70
2018-08-11T23:29:14.949Z,15.30
2018-08-11T23:31:44.847Z,15.70
2018-08-11T23:34:16.552Z,15.50
2018-08-11T23:36:46.476Z,16.20
2018-08-11T23:39:15.645Z,16.10
2018-08-11T23:41:45.519Z,15.50
2018-08-11T23:44:15.337Z,16.10
2018-08-11T23:46:45.271Z,15.90
2018-08-11T23:49:15.194Z,16.30
2018-08-11T23:51:44.807Z,15.90
2018-08-11T23:54:15.245Z,15.80
2018-08-11T23:56:44.712Z,15.80
2018-08-11T23:59:16.124Z,15.70
